createdAt,value
2018-12-18T00:00:53.549Z,61.05
2018-12-18T00:03:19.878Z,68.22
2018-12-18T00:05:46.151Z,65.83
2018-12-18T00:08:12.471Z,53.20
2018-12-18T00:10:44.899Z,57.80
2018-12-18T00:13:11.381Z,61.28
2018-12-18T00:15:37.703Z,57.85
2018-12-18T00:18:04.188Z,67.12
2018-12-18T00:20:30.507Z,59.13
2018-12-18T00:22:56.787Z,56.42
2018-12-18T00:25:23.085Z,56.95
2018-12-18T00:27:49.402Z,59.50
2018-12-18T00:30:15.676Z,52.58
2018-12-18T00:32:41.986Z,56.63
2018-12-18T00:35:08.283Z,51.35
2018-12-18T00:37:34.593Z,53.85
2018-12-18T00:40:00.944Z,55.05
2018-12-18T00:42:27.230Z,53.35
2018-12-18T00:44:53.537Z,49.83
2018-12-18T00:47:19.812Z,51.02
2018-12-18T00:49:46.150Z,61.08
2018-12-18T00:52:12.485Z,54.90
2018-12-18T00:54:38.819Z,56.65
2018-12-18T00:57:05.133Z,46.23
2018-12-18T00:59:31.442Z,50.15
2018-12-18T01:01:59.847Z,50.85
2018-12-18T01:04:26.470Z,51.65
2018-12-18T01:06:52.787Z,47.58
2018-12-18T01:09:19.095Z,52.13
2018-12-18T01:11:45.403Z,51.83
2018-12-18T01:14:11.749Z,52.65
2018-12-18T01:16:38.073Z,51.83
2018-12-18T01:19:04.397Z,49.77
2018-12-18T01:21:30.734Z,52.05
2018-12-18T01:23:57.008Z,47.58
2018-12-18T01:26:23.295Z,47.70
2018-12-18T01:28:49.596Z,51.92
2018-12-18T01:31:15.872Z,53.33
2018-12-18T01:33:42.127Z,45.05
2018-12-18T01:36:08.429Z,45.60
2018-12-18T01:38:34.740Z,47.50
2018-12-18T01:41:01.063Z,45.38
2018-12-18T01:43:27.395Z,48.17
2018-12-18T01:45:53.695Z,50.60
2018-12-18T01:48:19.999Z,47.88
2018-12-18T01:50:46.272Z,46.00
2018-12-18T01:53:12.592Z,49.83
2018-12-18T01:55:38.888Z,48.95
2018-12-18T01:58:05.205Z,47.60
2018-12-18T02:00:31.528Z,49.30
2018-12-18T02:02:57.799Z,48.10
2018-12-18T02:05:24.294Z,48.13
2018-12-18T02:07:50.587Z,50.40
2018-12-18T02:10:16.880Z,41.37
2018-12-18T02:12:43.267Z,44.93
2018-12-18T02:15:09.551Z,55.00
2018-12-18T02:17:35.831Z,49.95
2018-12-18T02:20:03.612Z,47.62
2018-12-18T02:22:29.931Z,49.20
2018-12-18T02:24:56.216Z,48.10
2018-12-18T02:27:22.554Z,50.88
2018-12-18T02:29:48.848Z,46.45
2018-12-18T02:32:15.145Z,52.65
2018-12-18T02:34:41.454Z,53.33
2018-12-18T02:37:07.776Z,53.20
2018-12-18T02:39:34.060Z,51.63
2018-12-18T02:42:00.391Z,52.48
2018-12-18T02:44:26.710Z,53.15
2018-12-18T02:46:53.011Z,55.12
2018-12-18T02:49:19.320Z,54.13
2018-12-18T02:51:45.642Z,54.13
2018-12-18T02:54:11.915Z,48.20
2018-12-18T02:56:38.191Z,52.08
2018-12-18T02:59:04.498Z,47.33
2018-12-18T03:01:30.845Z,45.38
2018-12-18T03:03:57.136Z,48.98
2018-12-18T03:06:23.455Z,53.73
2018-12-18T03:08:49.735Z,49.85
2018-12-18T03:11:20.086Z,56.10
2018-12-18T03:13:47.234Z,56.98
2018-12-18T03:16:13.568Z,51.00
2018-12-18T03:18:39.970Z,54.90
2018-12-18T03:21:06.245Z,57.58
2018-12-18T03:23:32.527Z,52.78
2018-12-18T03:25:58.816Z,53.90
2018-12-18T03:28:25.148Z,50.80
2018-12-18T03:30:51.520Z,58.20
2018-12-18T03:33:17.816Z,53.30
2018-12-18T03:35:44.112Z,52.62
2018-12-18T03:38:10.430Z,49.00
2018-12-18T03:40:36.712Z,56.48
2018-12-18T03:43:03.033Z,60.25
2018-12-18T03:45:29.348Z,50.10
2018-12-18T03:47:55.670Z,50.43
2018-12-18T03:50:21.967Z,56.00
2018-12-18T03:52:48.253Z,53.68
2018-12-18T03:55:14.596Z,51.28
2018-12-18T03:57:40.916Z,49.77
2018-12-18T04:00:07.827Z,49.60
2018-12-18T04:02:34.087Z,48.87
2018-12-18T04:05:00.410Z,51.98
2018-12-18T04:07:26.692Z,46.70
2018-12-18T04:09:53.003Z,44.70
2018-12-18T04:12:21.847Z,47.70
2018-12-18T04:14:48.366Z,48.92
2018-12-18T04:17:14.674Z,41.13
2018-12-18T04:19:40.984Z,47.40
2018-12-18T04:22:07.262Z,47.88
2018-12-18T04:24:33.570Z,43.75
2018-12-18T04:26:59.895Z,52.35
2018-12-18T04:29:26.182Z,42.83
2018-12-18T04:31:52.442Z,49.00
2018-12-18T04:34:18.733Z,50.12
2018-12-18T04:36:44.999Z,51.02
2018-12-18T04:39:11.292Z,55.67
2018-12-18T04:41:37.597Z,45.40
2018-12-18T04:44:03.896Z,45.85
2018-12-18T04:46:30.196Z,42.05
2018-12-18T04:48:56.493Z,46.77
2018-12-18T04:51:22.776Z,42.45
2018-12-18T04:53:49.103Z,47.50
2018-12-18T04:56:15.407Z,41.20
2018-12-18T04:58:41.712Z,48.55
2018-12-18T05:01:08.032Z,46.95
2018-12-18T05:03:34.424Z,48.98
2018-12-18T05:06:00.750Z,49.83
2018-12-18T05:08:27.052Z,44.73
2018-12-18T05:10:53.372Z,47.33
2018-12-18T05:13:19.684Z,47.15
2018-12-18T05:15:45.955Z,48.83
2018-12-18T05:18:12.240Z,43.10
2018-12-18T05:20:38.562Z,44.50
2018-12-18T05:23:04.875Z,43.95
2018-12-18T05:25:31.216Z,42.33
2018-12-18T05:27:57.531Z,43.87
2018-12-18T05:30:23.839Z,44.05
2018-12-18T05:32:50.116Z,43.15
2018-12-18T05:35:16.450Z,43.45
2018-12-18T05:37:42.773Z,48.90
2018-12-18T05:40:09.112Z,43.75
2018-12-18T05:42:35.375Z,52.45
2018-12-18T05:45:01.784Z,58.52
2018-12-18T05:47:28.098Z,46.00
2018-12-18T05:49:54.375Z,42.90
2018-12-18T05:52:20.691Z,40.78
2018-12-18T05:54:46.967Z,49.98
2018-12-18T05:57:13.256Z,45.52
2018-12-18T05:59:39.522Z,45.43
2018-12-18T06:02:05.772Z,52.05
2018-12-18T06:04:32.075Z,44.33
2018-12-18T06:06:58.351Z,39.55
2018-12-18T06:09:24.667Z,42.23
2018-12-18T06:11:50.975Z,45.10
2018-12-18T06:14:17.262Z,43.63
2018-12-18T06:16:43.561Z,41.50
2018-12-18T06:19:09.902Z,46.90
2018-12-18T06:21:36.179Z,37.70
2018-12-18T06:24:02.534Z,41.65
2018-12-18T06:26:28.797Z,40.78
2018-12-18T06:28:55.096Z,44.77
2018-12-18T06:31:21.375Z,40.40
2018-12-18T06:33:47.657Z,45.15
2018-12-18T06:36:13.966Z,42.50
2018-12-18T06:38:40.209Z,41.33
2018-12-18T06:41:06.509Z,39.10
2018-12-18T06:43:32.796Z,47.48
2018-12-18T06:45:59.074Z,44.67
2018-12-18T06:48:25.738Z,43.60
2018-12-18T06:50:52.131Z,42.23
2018-12-18T06:53:18.468Z,39.15
2018-12-18T06:55:44.743Z,45.45
2018-12-18T06:58:11.021Z,49.40
2018-12-18T07:00:37.313Z,40.03
2018-12-18T07:03:03.620Z,40.83
2018-12-18T07:05:29.883Z,36.63
2018-12-18T07:07:57.508Z,37.65
2018-12-18T07:10:24.178Z,48.33
2018-12-18T07:12:50.461Z,40.38
2018-12-18T07:15:16.748Z,39.33
2018-12-18T07:17:43.033Z,43.83
2018-12-18T07:20:09.578Z,39.20
2018-12-18T07:22:35.859Z,41.77
2018-12-18T07:25:02.268Z,45.08
2018-12-18T07:27:28.659Z,40.85
2018-12-18T07:29:54.961Z,42.80
2018-12-18T07:32:21.253Z,46.37
2018-12-18T07:34:47.503Z,42.83
2018-12-18T07:37:13.780Z,44.05
2018-12-18T07:39:40.170Z,45.65
2018-12-18T07:42:06.433Z,50.00
2018-12-18T07:44:32.737Z,50.70
2018-12-18T07:46:59.011Z,43.00
2018-12-18T07:49:25.381Z,38.88
2018-12-18T07:51:51.660Z,43.68
2018-12-18T07:54:17.950Z,47.88
2018-12-18T07:56:44.220Z,49.93
2018-12-18T07:59:10.475Z,47.35
2018-12-18T08:01:36.808Z,44.18
2018-12-18T08:04:03.092Z,41.80
2018-12-18T08:06:29.393Z,49.03
2018-12-18T08:08:55.678Z,40.08
2018-12-18T08:11:21.955Z,44.23
2018-12-18T08:13:48.268Z,45.50
2018-12-18T08:16:14.573Z,42.53
2018-12-18T08:18:40.859Z,43.58
2018-12-18T08:21:07.152Z,43.20
2018-12-18T08:23:33.420Z,41.35
2018-12-18T08:25:59.771Z,45.15
2018-12-18T08:28:26.044Z,41.63
2018-12-18T08:30:52.319Z,42.78
2018-12-18T08:33:18.611Z,44.33
2018-12-18T08:35:44.892Z,44.00
2018-12-18T08:38:11.176Z,42.75
2018-12-18T08:40:37.467Z,44.73
2018-12-18T08:43:03.719Z,45.00
2018-12-18T08:45:30.009Z,44.93
2018-12-18T08:47:56.308Z,43.25
2018-12-18T08:50:22.578Z,40.60
2018-12-18T08:52:48.858Z,43.35
2018-12-18T08:55:15.240Z,45.23
2018-12-18T08:57:41.543Z,41.85
2018-12-18T09:00:08.051Z,43.23
2018-12-18T09:02:34.414Z,44.55
2018-12-18T09:05:00.675Z,36.38
2018-12-18T09:07:26.939Z,43.92
2018-12-18T09:09:53.222Z,42.43
2018-12-18T09:12:19.475Z,42.33
2018-12-18T09:14:51.735Z,36.45
2018-12-18T09:17:20.193Z,39.60
2018-12-18T09:19:46.496Z,44.53
2018-12-18T09:22:12.774Z,46.05
2018-12-18T09:24:39.033Z,41.42
2018-12-18T09:27:05.308Z,47.27
2018-12-18T09:29:31.815Z,44.38
2018-12-18T09:31:58.091Z,46.75
2018-12-18T09:34:24.386Z,42.65
2018-12-18T09:36:50.636Z,45.17
2018-12-18T09:39:18.019Z,48.17
2018-12-18T09:41:46.053Z,46.08
2018-12-18T09:44:15.784Z,48.80
2018-12-18T09:46:42.048Z,43.87
2018-12-18T09:49:08.356Z,46.08
2018-12-18T09:51:34.650Z,42.85
2018-12-18T09:54:00.902Z,43.15
2018-12-18T09:56:27.174Z,43.73
2018-12-18T09:58:53.494Z,47.75
2018-12-18T10:01:19.756Z,44.58
2018-12-18T10:03:46.079Z,46.85
2018-12-18T10:06:12.364Z,47.08
2018-12-18T10:08:38.640Z,51.42
2018-12-18T10:11:05.031Z,48.23
2018-12-18T10:13:31.319Z,48.45
2018-12-18T10:15:57.602Z,42.23
2018-12-18T10:18:23.891Z,45.60
2018-12-18T10:20:50.158Z,44.80
2018-12-18T10:23:16.428Z,41.25
2018-12-18T10:25:42.682Z,47.15
2018-12-18T10:28:08.990Z,39.38
2018-12-18T10:30:35.243Z,43.85
2018-12-18T10:33:01.544Z,42.05
2018-12-18T10:35:27.805Z,39.98
2018-12-18T10:37:54.109Z,42.95
2018-12-18T10:40:20.587Z,44.18
2018-12-18T10:42:46.864Z,45.85
2018-12-18T10:45:13.775Z,46.70
2018-12-18T10:47:40.301Z,46.23
2018-12-18T10:50:06.691Z,46.33
2018-12-18T10:52:32.989Z,43.70
2018-12-18T10:54:59.257Z,46.13
2018-12-18T10:57:25.571Z,43.73
2018-12-18T10:59:51.875Z,47.53
2018-12-18T11:02:18.140Z,40.65
2018-12-18T11:04:44.440Z,47.35
2018-12-18T11:07:11.820Z,45.20
2018-12-18T11:09:38.136Z,45.67
2018-12-18T11:12:04.482Z,47.40
2018-12-18T11:14:30.786Z,51.10
2018-12-18T11:16:57.078Z,46.42
2018-12-18T11:19:23.368Z,45.10
2018-12-18T11:21:49.645Z,48.08
2018-12-18T11:24:15.935Z,50.17
2018-12-18T11:26:42.225Z,44.70
2018-12-18T11:29:08.553Z,43.80
2018-12-18T11:31:34.838Z,42.88
2018-12-18T11:34:01.120Z,41.37
2018-12-18T11:36:28.903Z,40.10
2018-12-18T11:38:55.177Z,43.83
2018-12-18T11:41:21.475Z,39.25
2018-12-18T11:43:47.771Z,36.58
2018-12-18T11:46:14.104Z,37.03
2018-12-18T11:48:40.392Z,35.63
2018-12-18T11:51:06.660Z,35.52
2018-12-18T11:53:32.960Z,37.28
2018-12-18T11:55:59.240Z,31.80
2018-12-18T11:58:25.527Z,31.27
2018-12-18T12:00:51.853Z,33.18
2018-12-18T12:03:18.125Z,29.67
2018-12-18T12:05:44.432Z,32.30
2018-12-18T12:08:10.710Z,39.70
2018-12-18T12:10:37.043Z,29.23
2018-12-18T12:13:03.323Z,29.75
2018-12-18T12:15:29.577Z,32.67
2018-12-18T12:17:56.343Z,32.55
2018-12-18T12:20:22.633Z,27.15
2018-12-18T12:22:48.915Z,31.23
2018-12-18T12:25:15.240Z,32.05
2018-12-18T12:27:47.807Z,31.10
2018-12-18T12:30:14.070Z,26.30
2018-12-18T12:32:40.383Z,27.52
2018-12-18T12:35:06.837Z,23.85
2018-12-18T12:37:33.139Z,27.77
2018-12-18T12:39:59.428Z,23.47
2018-12-18T12:42:25.773Z,24.98
2018-12-18T12:44:52.086Z,23.02
2018-12-18T12:47:18.346Z,28.73
2018-12-18T12:49:44.615Z,27.37
2018-12-18T12:52:11.031Z,23.18
2018-12-18T12:54:37.296Z,22.95
2018-12-18T12:57:03.726Z,29.63
2018-12-18T12:59:30.000Z,20.75
2018-12-18T13:01:56.272Z,25.35
2018-12-18T13:04:22.608Z,24.60
2018-12-18T13:06:48.871Z,24.55
2018-12-18T13:09:15.206Z,22.73
2018-12-18T13:11:41.792Z,24.98
2018-12-18T13:14:08.086Z,19.65
2018-12-18T13:16:34.372Z,21.60
2018-12-18T13:19:00.668Z,22.42
2018-12-18T13:21:26.959Z,22.37
2018-12-18T13:23:53.263Z,23.05
2018-12-18T13:26:19.563Z,19.35
2018-12-18T13:28:45.849Z,23.02
2018-12-18T13:31:12.143Z,24.27
2018-12-18T13:33:38.441Z,21.97
2018-12-18T13:36:04.750Z,23.12
2018-12-18T13:38:31.024Z,22.37
2018-12-18T13:40:57.305Z,22.95
2018-12-18T13:43:23.576Z,20.97
2018-12-18T13:45:49.876Z,24.43
2018-12-18T13:48:16.184Z,21.70
2018-12-18T13:50:42.446Z,19.40
2018-12-18T13:53:08.765Z,22.25
2018-12-18T13:55:36.824Z,23.12
2018-12-18T13:58:03.308Z,23.27
2018-12-18T14:00:29.621Z,22.07
2018-12-18T14:02:55.903Z,24.80
2018-12-18T14:05:22.183Z,22.67
2018-12-18T14:07:48.468Z,23.20
2018-12-18T14:10:14.767Z,20.65
2018-12-18T14:12:41.018Z,26.17
2018-12-18T14:15:07.835Z,23.27
2018-12-18T14:17:34.114Z,25.08
2018-12-18T14:20:00.398Z,25.15
2018-12-18T14:22:26.651Z,27.48
2018-12-18T14:24:52.938Z,26.65
2018-12-18T14:27:19.195Z,24.90
2018-12-18T14:29:45.494Z,24.90
2018-12-18T14:32:11.794Z,25.48
2018-12-18T14:34:38.084Z,25.75
2018-12-18T14:37:04.359Z,25.82
2018-12-18T14:39:30.648Z,29.25
2018-12-18T14:41:56.942Z,29.90
2018-12-18T14:44:24.050Z,26.77
2018-12-18T14:46:50.350Z,28.25
2018-12-18T14:49:16.656Z,23.95
2018-12-18T14:51:42.980Z,38.17
2018-12-18T14:54:09.279Z,24.18
2018-12-18T14:56:35.577Z,26.37
2018-12-18T14:59:01.835Z,24.75
2018-12-18T15:01:28.197Z,31.07
2018-12-18T15:03:54.520Z,29.02
2018-12-18T15:06:20.783Z,47.85
2018-12-18T15:08:47.271Z,27.93
2018-12-18T15:11:13.530Z,40.30
2018-12-18T15:13:40.913Z,40.78
2018-12-18T15:16:07.205Z,42.00
2018-12-18T15:18:33.472Z,35.92
2018-12-18T15:20:59.727Z,35.78
2018-12-18T15:23:26.062Z,37.42
2018-12-18T15:25:52.338Z,39.98
2018-12-18T15:28:18.636Z,33.85
2018-12-18T15:30:45.036Z,28.55
2018-12-18T15:33:11.307Z,36.88
2018-12-18T15:35:37.823Z,39.30
2018-12-18T15:38:04.088Z,32.45
2018-12-18T15:40:30.553Z,30.48
2018-12-18T15:42:56.807Z,32.10
2018-12-18T15:45:23.112Z,31.57
2018-12-18T15:47:49.447Z,28.83
2018-12-18T15:50:15.755Z,25.90
2018-12-18T15:52:42.044Z,28.05
2018-12-18T15:55:08.331Z,29.23
2018-12-18T15:57:34.616Z,25.17
2018-12-18T16:00:01.151Z,22.85
2018-12-18T16:02:27.450Z,27.45
2018-12-18T16:04:53.778Z,23.77
2018-12-18T16:07:20.047Z,28.77
2018-12-18T16:09:46.331Z,24.65
2018-12-18T16:12:12.620Z,23.73
2018-12-18T16:14:38.904Z,19.77
2018-12-18T16:17:05.169Z,20.75
2018-12-18T16:19:32.347Z,23.57
2018-12-18T16:21:58.815Z,22.90
2018-12-18T16:24:25.076Z,21.42
2018-12-18T16:26:51.343Z,24.90
2018-12-18T16:29:17.631Z,24.12
2018-12-18T16:31:43.957Z,29.98
2018-12-18T16:34:10.232Z,25.27
2018-12-18T16:36:36.499Z,24.50
2018-12-18T16:39:05.586Z,25.32
2018-12-18T16:41:31.852Z,23.65
2018-12-18T16:43:58.167Z,23.55
2018-12-18T16:46:24.440Z,25.90
2018-12-18T16:48:50.720Z,21.60
2018-12-18T16:51:17.019Z,22.27
2018-12-18T16:53:43.293Z,20.10
2018-12-18T16:56:09.572Z,18.10
2018-12-18T16:58:35.847Z,21.70
2018-12-18T17:01:02.187Z,21.57
2018-12-18T17:03:28.454Z,21.73
2018-12-18T17:05:54.735Z,21.77
2018-12-18T17:08:21.039Z,19.20
2018-12-18T17:10:47.311Z,19.23
2018-12-18T17:13:13.630Z,19.00
2018-12-18T17:15:39.928Z,21.42
2018-12-18T17:18:06.188Z,20.55
2018-12-18T17:20:32.468Z,23.07
2018-12-18T17:22:58.759Z,22.37
2018-12-18T17:25:25.048Z,21.93
2018-12-18T17:27:51.365Z,22.10
2018-12-18T17:30:17.644Z,27.58
2018-12-18T17:32:43.926Z,23.98
2018-12-18T17:35:10.256Z,21.55
2018-12-18T17:37:36.528Z,20.85
2018-12-18T17:40:03.726Z,22.42
2018-12-18T17:42:30.005Z,22.62
2018-12-18T17:44:56.324Z,21.12
2018-12-18T17:47:22.625Z,21.42
2018-12-18T17:49:48.866Z,23.55
2018-12-18T17:52:15.213Z,24.02
2018-12-18T17:54:41.546Z,24.82
2018-12-18T17:57:07.927Z,20.82
2018-12-18T17:59:34.213Z,21.68
2018-12-18T18:02:00.714Z,20.70
2018-12-18T18:04:27.063Z,20.15
2018-12-18T18:06:53.440Z,22.25
2018-12-18T18:09:19.707Z,20.30
2018-12-18T18:11:46.007Z,21.87
2018-12-18T18:14:13.364Z,21.17
2018-12-18T18:16:39.623Z,22.13
2018-12-18T18:19:05.977Z,20.52
2018-12-18T18:21:32.303Z,26.70
2018-12-18T18:23:58.554Z,25.35
2018-12-18T18:26:24.877Z,22.75
2018-12-18T18:28:51.127Z,25.55
2018-12-18T18:31:17.442Z,27.48
2018-12-18T18:33:43.745Z,20.77
2018-12-18T18:36:10.004Z,24.37
2018-12-18T18:38:36.287Z,27.48
2018-12-18T18:41:02.563Z,26.80
2018-12-18T18:43:28.827Z,25.20
2018-12-18T18:45:55.100Z,28.65
2018-12-18T18:48:21.355Z,28.32
2018-12-18T18:50:47.603Z,24.95
2018-12-18T18:53:13.921Z,24.00
2018-12-18T18:55:40.171Z,25.40
2018-12-18T18:58:06.476Z,24.15
2018-12-18T19:00:32.722Z,25.80
2018-12-18T19:02:58.979Z,25.12
2018-12-18T19:05:25.359Z,22.90
2018-12-18T19:07:56.405Z,26.70
2018-12-18T19:10:20.120Z,23.75
2018-12-18T19:12:46.398Z,25.75
2018-12-18T19:15:12.789Z,23.40
2018-12-18T19:17:39.042Z,25.55
2018-12-18T19:20:05.495Z,27.27
2018-12-18T19:22:31.760Z,26.02
2018-12-18T19:24:58.020Z,22.27
2018-12-18T19:27:24.267Z,22.82
2018-12-18T19:29:50.517Z,26.65
2018-12-18T19:32:16.814Z,24.98
2018-12-18T19:34:43.098Z,26.17
2018-12-18T19:37:09.453Z,24.00
2018-12-18T19:39:35.819Z,27.17
2018-12-18T19:42:02.845Z,22.42
2018-12-18T19:44:29.177Z,25.72
2018-12-18T19:46:55.494Z,23.92
2018-12-18T19:49:21.790Z,24.25
2018-12-18T19:51:48.099Z,23.73
2018-12-18T19:54:14.483Z,23.45
2018-12-18T19:56:40.867Z,24.92
2018-12-18T19:59:10.735Z,28.35
2018-12-18T20:01:35.540Z,21.97
2018-12-18T20:04:01.810Z,26.02
2018-12-18T20:06:28.181Z,21.65
2018-12-18T20:08:54.562Z,27.22
2018-12-18T20:11:20.888Z,25.82
2018-12-18T20:13:47.229Z,24.75
2018-12-18T20:16:13.503Z,26.80
2018-12-18T20:18:39.912Z,27.10
2018-12-18T20:21:06.223Z,25.27
2018-12-18T20:23:32.485Z,24.77
2018-12-18T20:25:59.155Z,26.87
2018-12-18T20:28:25.430Z,25.95
2018-12-18T20:30:51.762Z,28.30
2018-12-18T20:33:18.107Z,26.10
2018-12-18T20:35:44.367Z,24.77
2018-12-18T20:38:16.590Z,22.50
2018-12-18T20:40:39.008Z,26.52
2018-12-18T20:43:05.386Z,23.65
2018-12-18T20:45:31.666Z,24.77
2018-12-18T20:47:57.963Z,23.55
2018-12-18T20:50:24.226Z,25.45
2018-12-18T20:52:50.550Z,22.37
2018-12-18T20:55:16.935Z,24.15
2018-12-18T20:57:43.247Z,23.12
2018-12-18T21:00:10.036Z,20.70
2018-12-18T21:02:36.315Z,23.12
2018-12-18T21:05:03.635Z,22.27
2018-12-18T21:07:29.927Z,20.15
2018-12-18T21:09:56.204Z,20.70
2018-12-18T21:12:22.462Z,22.22
2018-12-18T21:14:48.744Z,21.20
2018-12-18T21:17:15.026Z,21.90
2018-12-18T21:19:41.283Z,17.52
2018-12-18T21:22:08.527Z,17.45
2018-12-18T21:24:34.769Z,17.75
2018-12-18T21:27:01.046Z,18.35
2018-12-18T21:29:27.334Z,16.20
2018-12-18T21:31:53.603Z,15.85
2018-12-18T21:34:19.862Z,15.88
2018-12-18T21:36:46.135Z,18.70
2018-12-18T21:39:12.381Z,16.85
2018-12-18T21:41:38.636Z,17.32
2018-12-18T21:44:04.912Z,19.45
2018-12-18T21:46:31.178Z,14.75
2018-12-18T21:48:57.447Z,19.27
2018-12-18T21:51:23.699Z,15.78
2018-12-18T21:53:49.967Z,17.48
2018-12-18T21:56:16.251Z,16.30
2018-12-18T21:58:42.488Z,15.95
2018-12-18T22:01:08.750Z,15.95
2018-12-18T22:03:35.012Z,15.50
2018-12-18T22:06:01.275Z,14.15
2018-12-18T22:08:27.526Z,16.52
2018-12-18T22:10:53.807Z,15.68
2018-12-18T22:13:20.084Z,13.32
2018-12-18T22:15:46.479Z,11.15
2018-12-18T22:18:12.709Z,14.83
2018-12-18T22:20:38.961Z,14.73
2018-12-18T22:23:05.309Z,14.43
2018-12-18T22:25:31.560Z,16.80
2018-12-18T22:27:57.881Z,14.28
2018-12-18T22:30:24.270Z,14.33
2018-12-18T22:32:50.535Z,13.70
2018-12-18T22:35:16.800Z,14.35
2018-12-18T22:37:43.087Z,10.88
2018-12-18T22:40:09.331Z,10.93
2018-12-18T22:42:35.602Z,13.00
2018-12-18T22:45:01.868Z,13.70
2018-12-18T22:47:28.264Z,16.12
2018-12-18T22:49:54.579Z,14.98
2018-12-18T22:52:20.831Z,15.45
2018-12-18T22:54:47.144Z,15.03
2018-12-18T22:57:13.391Z,14.10
2018-12-18T22:59:39.665Z,14.28
2018-12-18T23:02:07.985Z,14.13
2018-12-18T23:04:35.894Z,20.77
2018-12-18T23:07:02.296Z,15.65
2018-12-18T23:09:28.543Z,14.58
2018-12-18T23:11:54.799Z,12.20
2018-12-18T23:14:21.215Z,14.28
2018-12-18T23:16:47.475Z,14.33
2018-12-18T23:19:13.717Z,12.13
2018-12-18T23:21:39.968Z,12.60
2018-12-18T23:24:06.231Z,15.28
2018-12-18T23:26:32.495Z,12.60
2018-12-18T23:28:58.740Z,12.13
2018-12-18T23:31:24.987Z,13.00
2018-12-18T23:33:51.252Z,11.12
2018-12-18T23:36:17.505Z,11.95
2018-12-18T23:38:43.800Z,17.27
2018-12-18T23:41:10.065Z,14.83
2018-12-18T23:43:36.326Z,13.85
2018-12-18T23:46:02.604Z,14.50
2018-12-18T23:48:29.079Z,14.73
2018-12-18T23:50:55.358Z,15.43
2018-12-18T23:53:21.608Z,15.00
2018-12-18T23:55:47.864Z,16.90
2018-12-18T23:58:14.128Z,16.73
